Time;durP1;ratioP1;P1;durP2;ratioP2;P2;SDS_P1;SDS_P2;PMS_P1;PMS_P2;Temp;Humidity;BMP_temperature;BMP_pressure;BME280_temperature;BME280_humidity;BME280_pressure;Samples;Min_cycle;Max_cycle;Signal;HPM_P1;HPM_P2
2023/05/14 00:02:16;;;;;;;7.65;4.47;;;;;;;12.06;nan;100597.41;4969526;28;20100;-86
2023/05/14 00:04:42;;;;;;;5.50;4.32;;;;;;;12.10;nan;100590.78;4965171;28;20073;-87
2023/05/14 00:07:07;;;;;;;5.60;4.00;;;;;;;12.10;nan;100590.78;4980859;28;20066;-88
2023/05/14 00:09:34;;;;;;;5.93;4.13;;;;;;;12.20;nan;100587.16;4990230;28;20552;-86
2023/05/14 00:11:59;;;;;;;5.63;3.70;;;;;;;12.30;nan;100590.53;4991455;28;20070;-86
2023/05/14 00:14:25;;;;;;;4.30;3.60;;;;;;;12.35;nan;100590.03;4989913;28;20534;-85
2023/05/14 00:16:50;;;;;;;5.75;4.03;;;;;;;12.35;nan;100584.72;4990837;28;20037;-86
2023/05/14 00:19:16;;;;;;;10.30;4.18;;;;;;;12.35;nan;100592.69;4989279;28;20118;-85
2023/05/14 00:21:43;;;;;;;7.40;3.30;;;;;;;12.30;nan;100587.88;4991746;28;20038;-86
2023/05/14 00:24:10;;;;;;;4.70;3.65;;;;;;;12.34;nan;100586.56;4975312;28;20122;-86
2023/05/14 00:26:35;;;;;;;77.05;9.10;;;;;;;12.27;nan;100586.38;4973875;28;20101;-86
2023/05/14 00:29:01;;;;;;;5.30;3.50;;;;;;;12.34;nan;100591.84;4972323;28;20039;-86
2023/05/14 00:31:27;;;;;;;5.13;3.88;;;;;;;12.37;nan;100582.75;4982298;28;20030;-86
2023/05/14 00:33:58;;;;;;;6.75;3.90;;;;;;;12.38;nan;100579.94;4982565;28;20481;-86
2023/05/14 00:36:23;;;;;;;5.30;4.15;;;;;;;12.32;nan;100577.94;4974488;28;20042;-86
2023/05/14 00:38:48;;;;;;;8.63;4.00;;;;;;;12.30;nan;100571.97;4952328;28;20066;-86
2023/05/14 00:41:14;;;;;;;4.47;3.60;;;;;;;12.28;nan;100573.97;4953165;28;20744;-86
2023/05/14 00:43:39;;;;;;;4.05;3.47;;;;;;;12.24;nan;100575.25;4952706;28;20039;-84
2023/05/14 00:46:04;;;;;;;4.97;3.67;;;;;;;12.22;nan;100566.63;4959912;28;20065;-84
2023/05/14 00:48:30;;;;;;;5.13;3.80;;;;;;;12.17;nan;100564.47;4952814;28;20058;-86
2023/05/14 00:50:55;;;;;;;4.40;3.40;;;;;;;12.16;nan;100564.66;4954255;28;20154;-86
2023/05/14 00:53:21;;;;;;;4.50;3.42;;;;;;;12.16;nan;100565.47;4955130;28;20039;-86
2023/05/14 00:55:48;;;;;;;5.40;4.00;;;;;;;12.19;nan;100567.78;4951945;29;20043;-86
2023/05/14 00:58:13;;;;;;;4.63;3.60;;;;;;;12.16;nan;100569.94;4934478;28;20101;-86
2023/05/14 01:00:40;;;;;;;4.90;3.45;;;;;;;12.16;nan;100559.34;4935189;29;20497;-86
2023/05/14 01:03:06;;;;;;;6.35;3.58;;;;;;;12.11;nan;100554.53;4935360;29;20176;-84
2023/05/14 01:05:59;;;;;;;4.70;3.78;;;;;;;12.13;nan;100560.47;4952458;28;20032;-84
2023/05/14 01:08:33;;;;;;;4.60;3.70;;;;;;;12.14;nan;100554.19;4952795;28;20514;-85
2023/05/14 01:11:16;;;;;;;6.57;3.88;;;;;;;12.10;nan;100547.56;4970853;28;20039;-84
2023/05/14 01:14:26;;;;;;;4.97;3.80;;;;;;;12.11;nan;100552.69;4970105;28;20710;-85
2023/05/14 01:16:56;;;;;;;489.20;52.97;;;;;;;12.14;nan;100553.38;4949836;28;20042;-84
2023/05/14 01:19:37;;;;;;;8.35;3.17;;;;;;;12.14;nan;100548.06;4959982;28;20035;-84
2023/05/14 01:22:03;;;;;;;;;;;;;;;12.13;nan;100546.41;4952058;28;20074;-85
2023/05/14 01:24:28;;;;;;;960.13;100.78;;;;;;;12.10;nan;100545.72;4970110;28;20384;-84
2023/05/14 01:27:02;;;;;;;289.08;125.35;;;;;;;12.08;nan;100550.38;4953227;28;20039;-85
2023/05/14 01:29:29;;;;;;;1999.90;999.90;;;;;;;12.08;nan;100546.88;4947148;28;20046;-85
2023/05/14 01:31:56;;;;;;;6.05;3.83;;;;;;;12.05;nan;100542.72;4971631;28;20232;-84
2023/05/14 01:34:25;;;;;;;3.97;3.20;;;;;;;12.01;nan;100546.72;4969494;28;20050;-85
2023/05/14 01:36:52;;;;;;;4.85;3.20;;;;;;;11.93;nan;100548.50;4969859;28;20042;-85
2023/05/14 01:39:18;;;;;;;3.75;2.92;;;;;;;11.85;nan;100544.78;4971369;28;20081;-85
2023/05/14 01:41:45;;;;;;;4.20;3.58;;;;;;;11.68;nan;100549.19;4967333;28;20118;-85
2023/05/14 01:44:10;;;;;;;5.43;4.15;;;;;;;11.63;nan;100550.63;4968915;28;20039;-85
2023/05/14 01:46:36;;;;;;;6.00;4.35;;;;;;;11.61;nan;100548.16;4978985;28;20069;-85
2023/05/14 01:49:02;;;;;;;5.63;3.90;;;;;;;11.61;nan;100550.81;4986327;28;20169;-86
2023/05/14 01:51:27;;;;;;;5.22;3.90;;;;;;;11.55;nan;100551.44;4974800;28;20516;-86
2023/05/14 01:53:52;;;;;;;6.53;4.83;;;;;;;11.52;nan;100543.81;4978189;28;20038;-86
2023/05/14 01:56:24;;;;;;;5.10;4.20;;;;;;;11.50;nan;100539.66;4971770;28;20160;-86
2023/05/14 01:58:49;;;;;;;4.80;4.22;;;;;;;11.46;nan;100547.06;4970735;28;20536;-86
2023/05/14 02:01:15;;;;;;;7.10;4.45;;;;;;;11.38;nan;100550.50;4967835;28;20042;-86
2023/05/14 02:03:40;;;;;;;6.13;4.70;;;;;;;11.37;nan;100540.91;4953094;28;20027;-86
2023/05/14 02:06:06;;;;;;;6.32;4.50;;;;;;;11.32;nan;100540.56;4965544;28;20053;-87
2023/05/14 02:08:31;;;;;;;5.63;4.57;;;;;;;11.30;nan;100539.03;4950883;28;20039;-86
2023/05/14 02:10:56;;;;;;;5.32;4.25;;;;;;;11.23;nan;100538.84;4949896;28;20127;-86
2023/05/14 02:13:21;;;;;;;5.05;4.00;;;;;;;11.21;nan;100540.81;4964031;28;20551;-86
2023/05/14 02:15:48;;;;;;;5.75;4.50;;;;;;;11.14;nan;100547.72;4969292;28;20400;-86
2023/05/14 02:18:13;;;;;;;5.47;4.55;;;;;;;11.10;nan;100541.88;4972694;28;20038;-86
2023/05/14 02:20:38;;;;;;;6.55;4.80;;;;;;;11.07;nan;100536.91;4968748;28;20031;-86
2023/05/14 02:23:03;;;;;;;7.05;4.90;;;;;;;11.07;nan;100544.03;4969802;28;20041;-86
2023/05/14 02:25:29;;;;;;;6.40;4.75;;;;;;;11.07;nan;100536.91;4968721;28;20566;-86
2023/05/14 02:27:54;;;;;;;6.68;5.28;;;;;;;11.07;nan;100539.56;4985018;28;20049;-87
2023/05/14 02:30:20;;;;;;;6.88;4.97;;;;;;;11.01;nan;100542.81;4960927;28;20047;-85
2023/05/14 02:32:46;;;;;;;6.25;5.05;;;;;;;10.94;nan;100532.03;4963555;28;20038;-85
2023/05/14 02:35:11;;;;;;;6.30;4.82;;;;;;;10.93;nan;100540.94;4962824;28;20581;-85
2023/05/14 02:37:36;;;;;;;6.00;4.65;;;;;;;10.95;nan;100528.38;4951430;28;20621;-86
2023/05/14 02:40:03;;;;;;;6.50;4.23;;;;;;;10.99;nan;100539.50;4950394;28;20507;-85
2023/05/14 02:42:28;;;;;;;5.25;4.75;;;;;;;10.97;nan;100538.84;4956931;28;20026;-84
2023/05/14 02:44:53;;;;;;;6.03;5.18;;;;;;;10.96;nan;100539.81;4970475;28;20045;-84
2023/05/14 02:47:19;;;;;;;5.25;4.40;;;;;;;10.95;nan;100530.22;4991388;28;20039;-83
2023/05/14 02:49:44;;;;;;;5.38;4.65;;;;;;;10.93;nan;100526.88;4993212;28;20035;-84
2023/05/14 02:52:09;;;;;;;5.07;4.43;;;;;;;10.89;nan;100533.47;4977605;28;20047;-84
2023/05/14 02:54:34;;;;;;;6.43;4.97;;;;;;;10.88;nan;100537.09;4958782;28;20451;-84
2023/05/14 02:57:00;;;;;;;7.82;5.63;;;;;;;10.81;nan;100535.06;4975846;28;20035;-83
2023/05/14 02:59:26;;;;;;;6.47;5.35;;;;;;;10.86;nan;100541.72;4975452;28;20035;-84
2023/05/14 03:01:51;;;;;;;6.30;4.78;;;;;;;10.87;nan;100536.28;4957966;28;20129;-84
2023/05/14 03:04:16;;;;;;;8.10;5.68;;;;;;;10.85;nan;100530.31;4974705;28;20056;-84
2023/05/14 03:06:41;;;;;;;7.88;5.45;;;;;;;10.84;nan;100534.78;4962036;28;20065;-86
2023/05/14 03:09:07;;;;;;;6.57;5.50;;;;;;;10.90;nan;100529.84;4966557;28;20031;-86
2023/05/14 03:11:32;;;;;;;5.80;5.10;;;;;;;10.94;nan;100525.88;4956048;28;20039;-86
2023/05/14 03:13:57;;;;;;;7.43;4.95;;;;;;;10.93;nan;100530.34;4943922;28;20035;-86
2023/05/14 03:16:23;;;;;;;6.95;5.03;;;;;;;10.95;nan;100536.31;4958309;28;20042;-86
2023/05/14 03:18:48;;;;;;;6.22;4.93;;;;;;;10.93;nan;100533.00;4978010;28;20050;-86
2023/05/14 03:21:13;;;;;;;8.07;5.73;;;;;;;10.91;nan;100537.63;4992192;28;20038;-86
2023/05/14 03:23:39;;;;;;;6.10;5.38;;;;;;;10.93;nan;100534.81;4993062;28;20281;-86
2023/05/14 03:26:04;;;;;;;7.32;5.65;;;;;;;10.91;nan;100531.50;4994415;28;20467;-85
2023/05/14 03:28:30;;;;;;;7.93;5.50;;;;;;;10.86;nan;100529.31;4994127;28;20072;-85
2023/05/14 03:30:55;;;;;;;6.82;5.45;;;;;;;10.87;nan;100535.44;4984813;28;20420;-83
2023/05/14 03:33:21;;;;;;;7.47;5.15;;;;;;;10.84;nan;100537.41;4985761;28;20125;-85
2023/05/14 03:35:46;;;;;;;5.20;4.50;;;;;;;10.77;nan;100533.72;4993359;28;20038;-84
2023/05/14 03:38:15;;;;;;;5.68;4.18;;;;;;;10.73;nan;100540.28;4992649;28;20038;-84
2023/05/14 03:40:40;;;;;;;6.72;4.80;;;;;;;10.66;nan;100538.41;5009479;28;20664;-85
2023/05/14 03:43:05;;;;;;;7.60;5.30;;;;;;;10.59;nan;100536.38;4985371;28;20134;-84
2023/05/14 03:45:32;;;;;;;6.28;5.20;;;;;;;10.56;nan;100538.50;4991611;28;20121;-85
2023/05/14 03:47:57;;;;;;;7.70;5.47;;;;;;;10.53;nan;100525.56;5012147;28;20628;-85
2023/05/14 03:50:24;;;;;;;8.70;4.70;;;;;;;10.51;nan;100530.16;5006336;28;20030;-85
2023/05/14 03:52:51;;;;;;;9.75;6.20;;;;;;;10.47;nan;100536.75;4995977;28;20037;-85
2023/05/14 03:55:17;;;;;;;8.23;6.00;;;;;;;10.43;nan;100533.56;5013224;28;20056;-86
2023/05/14 03:57:43;;;;;;;6.88;5.90;;;;;;;10.36;nan;100532.50;4996984;28;20107;-86
2023/05/14 04:00:09;;;;;;;7.55;5.55;;;;;;;10.30;nan;100539.22;4994262;28;20639;-86
2023/05/14 04:02:34;;;;;;;6.57;5.47;;;;;;;10.24;nan;100537.16;5013701;28;20034;-86
2023/05/14 04:04:59;;;;;;;5.50;4.57;;;;;;;10.25;nan;100530.91;5015180;28;20870;-86
2023/05/14 04:07:24;;;;;;;7.00;5.70;;;;;;;10.23;nan;100532.84;5007843;28;20030;-86
2023/05/14 04:09:50;;;;;;;7.10;6.10;;;;;;;10.23;nan;100532.03;4994812;28;20034;-85
2023/05/14 04:12:16;;;;;;;7.88;5.53;;;;;;;10.25;nan;100536.19;4977102;28;20054;-86
2023/05/14 04:14:41;;;;;;;6.70;5.55;;;;;;;10.26;nan;100532.53;4993258;28;20038;-85
2023/05/14 04:17:07;;;;;;;6.47;5.18;;;;;;;10.25;nan;100538.81;4993513;28;20034;-86
2023/05/14 04:19:32;;;;;;;6.65;5.35;;;;;;;10.27;nan;100534.19;5010537;28;20070;-86
2023/05/14 04:21:57;;;;;;;6.22;5.20;;;;;;;10.33;nan;100528.34;5012547;28;20065;-86
2023/05/14 04:24:22;;;;;;;6.70;5.10;;;;;;;10.46;nan;100533.25;5008056;28;20077;-86
2023/05/14 04:26:48;;;;;;;7.45;5.70;;;;;;;10.53;nan;100528.19;4994455;28;20312;-86
2023/05/14 04:29:13;;;;;;;11.50;5.75;;;;;;;10.58;nan;100537.38;5008817;28;20093;-84
2023/05/14 04:31:38;;;;;;;6.78;5.70;;;;;;;10.59;nan;100533.72;4995722;28;20289;-85
2023/05/14 04:34:04;;;;;;;6.85;5.07;;;;;;;10.76;nan;100531.22;4989618;28;20204;-86
2023/05/14 04:36:30;;;;;;;6.00;5.07;;;;;;;10.90;nan;100530.66;4987375;28;20037;-86
2023/05/14 04:38:55;;;;;;;7.20;5.28;;;;;;;11.08;nan;100522.69;4995999;28;20455;-86
2023/05/14 04:41:20;;;;;;;6.35;4.93;;;;;;;11.21;nan;100527.59;5014066;28;20049;-84
2023/05/14 04:43:48;;;;;;;149.20;32.28;;;;;;;11.30;nan;100524.00;5003049;28;20056;-86
2023/05/14 04:46:19;;;;;;;5.30;4.35;;;;;;;11.42;nan;100524.56;4995305;28;20030;-85
2023/05/14 04:48:44;;;;;;;5.82;5.00;;;;;;;11.53;nan;100518.16;5015020;28;20038;-86
2023/05/14 04:51:10;;;;;;;6.18;4.50;;;;;;;11.69;nan;100534.94;5001927;28;20417;-86
2023/05/14 04:53:38;;;;;;;6.55;4.53;;;;;;;11.82;nan;100531.88;4997198;28;20038;-86
2023/05/14 04:56:04;;;;;;;5.18;4.30;;;;;;;12.02;nan;100535.09;5012964;28;20430;-86
2023/05/14 04:58:31;;;;;;;5.70;4.60;;;;;;;12.11;nan;100544.75;5011748;28;20113;-86
2023/05/14 05:00:57;;;;;;;5.55;4.35;;;;;;;12.13;nan;100541.09;5007862;28;20066;-87
2023/05/14 05:03:25;;;;;;;5.03;4.13;;;;;;;12.05;nan;100548.03;5008908;28;20030;-86
2023/05/14 05:05:50;;;;;;;6.70;4.88;;;;;;;12.21;nan;100538.47;5012457;28;20562;-85
2023/05/14 05:08:16;;;;;;;5.93;4.70;;;;;;;12.23;nan;100549.75;5005414;28;20042;-85
2023/05/14 05:10:41;;;;;;;5.00;4.22;;;;;;;12.25;nan;100537.16;4975107;28;20054;-85
2023/05/14 05:13:06;;;;;;;7.55;4.30;;;;;;;12.39;nan;100541.00;4994989;28;20049;-86
2023/05/14 05:15:32;;;;;;;5.35;4.55;;;;;;;12.42;nan;100538.84;5011673;28;20034;-86
2023/05/14 05:17:57;;;;;;;5.65;4.55;;;;;;;12.58;nan;100542.50;5012708;28;20038;-87
2023/05/14 05:20:23;;;;;;;6.25;4.13;;;;;;;12.74;nan;100548.66;5004610;28;20676;-84
2023/05/14 05:22:49;;;;;;;5.32;4.38;;;;;;;13.00;nan;100554.81;5013657;28;20053;-84
2023/05/14 05:25:14;;;;;;;7.38;4.45;;;;;;;13.20;nan;100544.66;4995832;28;20046;-84
2023/05/14 05:27:39;;;;;;;7.30;4.57;;;;;;;13.31;nan;100547.81;5013678;28;20462;-84
2023/05/14 05:30:06;;;;;;;6.15;4.50;;;;;;;13.44;nan;100551.75;5013771;28;20030;-84
2023/05/14 05:32:31;;;;;;;5.80;4.45;;;;;;;13.58;nan;100559.03;4986619;28;20042;-84
2023/05/14 05:34:56;;;;;;;6.05;4.47;;;;;;;13.61;nan;100553.41;4994653;28;20037;-84
2023/05/14 05:37:21;;;;;;;6.18;4.25;;;;;;;13.59;nan;100558.06;5012194;28;20111;-87
2023/05/14 05:39:47;;;;;;;4.65;3.65;;;;;;;13.68;nan;100554.38;5011066;28;20142;-85
2023/05/14 05:42:13;;;;;;;4.68;3.65;;;;;;;13.76;nan;100551.69;4987108;28;20043;-84
2023/05/14 05:44:38;;;;;;;6.35;4.03;;;;;;;13.79;nan;100553.97;4985466;28;20034;-84
2023/05/14 05:47:04;;;;;;;4.65;3.55;;;;;;;13.86;nan;100551.47;5007751;28;20037;-85
2023/05/14 05:49:32;;;;;;;4.50;3.88;;;;;;;14.13;nan;100559.97;4988782;28;20040;-85
2023/05/14 05:51:58;;;;;;;3.63;3.25;;;;;;;14.52;nan;100548.47;4982385;28;20130;-85
2023/05/14 05:54:26;;;;;;;3.85;3.40;;;;;;;14.95;nan;100548.81;4986584;28;20458;-85
2023/05/14 05:56:51;;;;;;;4.45;3.40;;;;;;;15.37;nan;100547.41;5010228;28;20037;-85
2023/05/14 05:59:20;;;;;;;3.85;3.20;;;;;;;15.93;nan;100548.63;4991774;28;20041;-85
2023/05/14 06:01:46;;;;;;;3.63;2.85;;;;;;;16.51;nan;100545.16;5008161;28;20034;-86
2023/05/14 06:04:12;;;;;;;3.38;2.60;;;;;;;16.80;nan;100552.22;4991649;28;20415;-86
2023/05/14 06:06:37;;;;;;;4.15;3.25;;;;;;;16.87;nan;100546.94;4991319;28;20033;-86
2023/05/14 06:09:03;;;;;;;4.05;3.13;;;;;;;16.81;nan;100550.41;5008700;28;20444;-86
2023/05/14 06:11:28;;;;;;;4.40;3.17;;;;;;;16.92;nan;100549.88;5011062;28;20036;-86
2023/05/14 06:14:03;;;;;;;4.28;3.45;;;;;;;16.88;nan;100552.13;4990250;28;20129;-86
2023/05/14 06:16:28;;;;;;;3.88;3.22;;;;;;;16.76;nan;100541.09;4986575;28;20499;-86
2023/05/14 06:18:56;;;;;;;4.18;3.28;;;;;;;16.71;nan;100540.03;5001605;28;20095;-86
2023/05/14 06:21:22;;;;;;;3.42;3.05;;;;;;;16.64;nan;100544.47;4993280;28;20125;-86
2023/05/14 06:23:47;;;;;;;5.70;3.38;;;;;;;16.75;nan;100541.25;4989043;28;20061;-85
2023/05/14 06:26:13;;;;;;;3.97;3.00;;;;;;;16.89;nan;100536.91;5005996;28;20053;-86
2023/05/14 06:28:38;;;;;;;3.45;2.90;;;;;;;17.24;nan;100532.44;5004121;28;20137;-86
2023/05/14 06:31:04;;;;;;;3.95;3.47;;;;;;;17.71;nan;100541.56;5004675;28;20156;-86
2023/05/14 06:33:30;;;;;;;4.22;3.33;;;;;;;18.01;nan;100539.44;4985558;28;20039;-84
2023/05/14 06:36:01;;;;;;;4.97;3.25;;;;;;;18.17;nan;100540.13;4985081;28;20046;-85
2023/05/14 06:38:26;;;;;;;3.72;3.30;;;;;;;18.44;nan;100541.00;5008270;28;20122;-85
2023/05/14 06:40:52;;;;;;;4.40;3.63;;;;;;;17.63;nan;100542.53;4982966;28;20575;-86
2023/05/14 06:43:17;;;;;;;4.68;3.63;;;;;;;17.88;nan;100539.41;4983320;28;20120;-86
2023/05/14 06:45:43;;;;;;;4.60;3.50;;;;;;;17.28;nan;100538.22;5001664;28;20511;-85
2023/05/14 06:48:12;;;;;;;5.00;3.30;;;;;;;17.45;nan;100536.06;4988978;28;20042;-86
2023/05/14 06:50:37;;;;;;;3.45;3.10;;;;;;;17.36;nan;100535.41;5007000;28;20042;-85
2023/05/14 06:53:02;;;;;;;5.30;4.22;;;;;;;16.81;nan;100537.88;5008002;28;20048;-85
2023/05/14 06:55:30;;;;;;;4.82;3.83;;;;;;;16.88;nan;100530.75;5013664;28;20076;-86
2023/05/14 06:57:55;;;;;;;4.25;3.17;;;;;;;17.12;nan;100521.47;4993967;28;20030;-87
2023/05/14 07:00:21;;;;;;;4.00;3.28;;;;;;;17.46;nan;100521.69;4989150;28;20046;-85
2023/05/14 07:02:47;;;;;;;5.63;3.47;;;;;;;17.26;nan;100524.25;5004280;28;20045;-85
2023/05/14 07:05:13;;;;;;;4.10;3.35;;;;;;;17.06;nan;100522.22;4982775;28;20042;-86
2023/05/14 07:07:38;;;;;;;4.20;3.72;;;;;;;16.97;nan;100534.06;4990163;28;20403;-86
2023/05/14 07:10:04;;;;;;;3.97;3.10;;;;;;;17.32;nan;100520.78;4989856;28;20236;-85
2023/05/14 07:12:29;;;;;;;4.78;3.63;;;;;;;17.73;nan;100525.31;5007022;28;20440;-85
2023/05/14 07:14:55;;;;;;;3.97;3.10;;;;;;;18.08;nan;100520.75;4999697;28;20169;-85
2023/05/14 07:17:21;;;;;;;5.07;3.78;;;;;;;18.72;nan;100522.09;4988994;28;20395;-86
2023/05/14 07:19:46;;;;;;;3.78;3.10;;;;;;;18.86;nan;100518.44;5006760;28;20030;-87
2023/05/14 07:22:11;;;;;;;4.32;2.85;;;;;;;19.21;nan;100518.19;4988920;28;20093;-87
2023/05/14 07:24:37;;;;;;;3.90;2.92;;;;;;;19.50;nan;100516.88;4989845;28;20042;-87
2023/05/14 07:27:02;;;;;;;5.00;3.90;;;;;;;19.63;nan;100512.50;5007177;28;20034;-88
2023/05/14 07:29:29;;;;;;;3.63;2.80;;;;;;;19.12;nan;100505.22;4990041;28;20049;-87
2023/05/14 07:31:54;;;;;;;3.30;2.40;;;;;;;19.10;nan;100506.25;4988977;28;20041;-87
2023/05/14 07:34:22;;;;;;;3.92;2.90;;;;;;;19.69;nan;100511.72;4989545;28;20546;-87
2023/05/14 07:36:47;;;;;;;3.72;3.10;;;;;;;20.42;nan;100497.88;4991385;28;20054;-87
2023/05/14 07:39:13;;;;;;;3.40;2.38;;;;;;;20.52;nan;100500.94;4993958;28;20041;-85
2023/05/14 07:41:38;;;;;;;3.20;2.60;;;;;;;20.65;nan;100500.03;4986461;28;20061;-87
2023/05/14 07:44:04;;;;;;;3.55;2.78;;;;;;;21.31;nan;100500.44;5009581;28;20492;-88
2023/05/14 07:46:29;;;;;;;3.45;2.60;;;;;;;21.49;nan;100494.28;5009571;28;20049;-87
2023/05/14 07:48:54;;;;;;;3.50;2.80;;;;;;;21.36;nan;100490.69;5007437;28;20078;-87
2023/05/14 07:51:19;;;;;;;3.75;2.60;;;;;;;20.96;nan;100499.13;4997123;28;20459;-87
2023/05/14 07:53:45;;;;;;;2.83;2.45;;;;;;;20.69;nan;100492.34;5005613;28;20438;-87
2023/05/14 07:56:10;;;;;;;2.97;2.63;;;;;;;20.39;nan;100484.06;4991158;28;20078;-87
2023/05/14 07:58:35;;;;;;;3.77;2.40;;;;;;;20.41;nan;100488.19;4993180;28;20038;-87
2023/05/14 08:01:03;;;;;;;3.30;2.40;;;;;;;20.49;nan;100479.03;4992554;28;20285;-87
2023/05/14 08:03:28;;;;;;;3.47;2.22;;;;;;;20.92;nan;100489.84;4987362;28;20294;-87
2023/05/14 08:05:53;;;;;;;3.17;1.90;;;;;;;21.51;nan;100479.56;4987593;28;20034;-87
2023/05/14 08:08:18;;;;;;;3.45;2.45;;;;;;;21.80;nan;100474.44;5000959;28;20026;-87
2023/05/14 08:10:44;;;;;;;3.67;2.57;;;;;;;21.94;nan;100485.88;5005411;28;20415;-87
2023/05/14 08:13:09;;;;;;;3.25;2.40;;;;;;;22.17;nan;100480.56;4986782;28;20285;-87
2023/05/14 08:15:35;;;;;;;3.13;2.45;;;;;;;22.20;nan;100474.75;4987131;28;20233;-87
2023/05/14 08:18:02;;;;;;;4.05;2.58;;;;;;;22.15;nan;100471.06;5009785;28;20042;-88
2023/05/14 08:20:29;;;;;;;3.33;2.38;;;;;;;22.48;nan;100471.41;5005515;28;20105;-87
2023/05/14 08:22:56;;;;;;;3.75;2.22;;;;;;;23.10;nan;100478.28;5009332;28;20096;-85
2023/05/14 08:25:23;;;;;;;3.22;2.42;;;;;;;23.54;nan;100463.28;4978648;28;20057;-85
2023/05/14 08:27:49;;;;;;;4.00;2.30;;;;;;;23.98;nan;100459.28;4989228;28;20411;-85
2023/05/14 08:30:14;;;;;;;3.08;2.38;;;;;;;24.19;nan;100455.06;5005058;28;20037;-85
2023/05/14 08:32:40;;;;;;;2.60;2.10;;;;;;;24.50;nan;100459.13;5009818;28;20570;-82
2023/05/14 08:35:06;;;;;;;3.40;2.13;;;;;;;25.04;nan;100462.09;4992872;28;20065;-82
2023/05/14 08:37:31;;;;;;;3.30;2.25;;;;;;;25.31;nan;100461.41;4992357;28;20057;-86
2023/05/14 08:39:56;;;;;;;3.60;2.50;;;;;;;25.34;nan;100452.81;5004161;28;20042;-85
2023/05/14 08:42:24;;;;;;;3.28;2.22;;;;;;;25.47;nan;100457.81;4992235;28;20558;-86
2023/05/14 08:44:57;;;;;;;2.85;2.10;;;;;;;25.51;nan;100458.97;4992242;28;20037;-84
2023/05/14 08:47:23;;;;;;;3.53;2.20;;;;;;;25.66;nan;100458.31;4991441;28;20064;-85
2023/05/14 08:49:56;;;;;;;2.42;1.70;;;;;;;26.89;nan;100451.31;4986074;28;20034;-85
2023/05/14 08:52:22;;;;;;;2.45;1.90;;;;;;;26.86;nan;100452.66;5008253;28;20515;-86
2023/05/14 08:54:49;;;;;;;3.42;2.20;;;;;;;27.09;nan;100451.41;5010578;28;20141;-85
2023/05/14 08:57:17;;;;;;;2.55;1.88;;;;;;;27.53;nan;100451.09;5009204;28;20128;-84
2023/05/14 08:59:42;;;;;;;2.50;1.98;;;;;;;27.41;nan;100453.25;4991281;28;20779;-86
2023/05/14 09:02:10;;;;;;;2.13;1.60;;;;;;;28.32;nan;100449.09;5008913;28;20416;-85
2023/05/14 09:04:36;;;;;;;2.72;2.10;;;;;;;27.40;nan;100446.16;4991471;28;20905;-85
2023/05/14 09:07:02;;;;;;;2.40;1.90;;;;;;;26.91;nan;100441.03;5007582;28;20412;-85
2023/05/14 09:09:28;;;;;;;2.20;1.70;;;;;;;26.46;nan;100448.56;5004729;28;21002;-85
2023/05/14 09:11:54;;;;;;;2.60;2.20;;;;;;;26.20;nan;100447.53;5009341;28;20506;-85
2023/05/14 09:14:22;;;;;;;2.30;1.90;;;;;;;26.47;nan;100450.19;4991238;28;20437;-84
2023/05/14 09:16:49;;;;;;;2.45;1.95;;;;;;;24.89;nan;100456.50;5009442;28;20547;-85
2023/05/14 09:19:17;;;;;;;2.10;1.80;;;;;;;24.78;nan;100452.81;4995451;28;20413;-85
2023/05/14 09:21:44;;;;;;;2.92;2.20;;;;;;;23.76;nan;100440.25;4996784;28;20745;-86
2023/05/14 09:24:28;;;;;;;3.65;2.08;;;;;;;23.43;nan;100442.56;4989515;28;20096;-86
2023/05/14 09:26:56;;;;;;;3.40;2.65;;;;;;;23.08;nan;100432.66;4988168;28;20033;-86
2023/05/14 09:29:27;;;;;;;3.58;2.50;;;;;;;22.33;nan;100430.59;4988425;28;20042;-86
2023/05/14 09:31:54;;;;;;;3.50;2.50;;;;;;;21.47;nan;100437.19;4993159;28;20029;-85
2023/05/14 09:34:30;;;;;;;2.92;2.58;;;;;;;21.78;nan;100433.47;4983779;28;20397;-85
2023/05/14 09:36:57;;;;;;;3.53;2.63;;;;;;;21.48;nan;100430.78;4990617;28;20041;-86
2023/05/14 09:39:23;;;;;;;3.15;2.38;;;;;;;21.44;nan;100433.09;4986296;28;20038;-84
2023/05/14 09:41:50;;;;;;;3.13;2.72;;;;;;;21.55;nan;100436.91;5012321;28;20049;-83
2023/05/14 09:44:16;;;;;;;4.13;2.92;;;;;;;21.09;nan;100435.53;5011383;28;20045;-84
2023/05/14 09:46:41;;;;;;;3.97;3.03;;;;;;;20.74;nan;100444.16;4992732;28;20061;-84
2023/05/14 09:49:06;;;;;;;4.05;2.70;;;;;;;20.81;nan;100434.16;4996180;28;20072;-84
2023/05/14 09:51:32;;;;;;;3.45;2.88;;;;;;;20.53;nan;100438.09;4996149;28;20054;-85
2023/05/14 09:53:59;;;;;;;3.63;2.80;;;;;;;20.60;nan;100439.94;5017351;28;20037;-84
2023/05/14 09:56:25;;;;;;;3.90;2.90;;;;;;;20.52;nan;100432.91;4989392;28;20388;-84
2023/05/14 09:58:50;;;;;;;3.60;2.80;;;;;;;20.41;nan;100430.97;5009456;28;20041;-83
2023/05/14 10:01:19;;;;;;;3.40;2.63;;;;;;;20.72;nan;100430.13;5011585;28;20410;-85
2023/05/14 10:03:44;;;;;;;;;;;;;;;20.88;nan;100428.69;4993571;28;20681;-86
2023/05/14 10:06:12;;;;;;;4.10;3.00;;;;;;;21.34;nan;100430.09;4992851;28;20427;-85
2023/05/14 10:08:42;;;;;;;3.20;2.53;;;;;;;20.98;nan;100434.41;4994500;28;20434;-84
2023/05/14 10:11:12;;;;;;;4.17;2.70;;;;;;;21.12;nan;100437.78;4993011;28;20062;-85
2023/05/14 10:13:48;;;;;;;3.40;2.65;;;;;;;21.26;nan;100438.44;4987107;28;20121;-86
2023/05/14 10:16:20;;;;;;;3.72;2.80;;;;;;;21.16;nan;100436.28;4990302;28;20522;-86
2023/05/14 10:18:51;;;;;;;2.92;2.47;;;;;;;21.11;nan;100436.13;4981724;28;20507;-86
2023/05/14 10:21:20;;;;;;;3.05;2.20;;;;;;;21.18;nan;100431.50;5008206;28;20029;-86
2023/05/14 10:23:46;;;;;;;2.50;2.05;;;;;;;21.42;nan;100441.38;4985386;28;20038;-86
2023/05/14 10:26:12;;;;;;;3.75;2.88;;;;;;;21.54;nan;100435.25;4986944;28;20117;-86
2023/05/14 10:28:38;;;;;;;4.65;2.90;;;;;;;21.31;nan;100439.44;4985865;28;20428;-86
2023/05/14 10:31:10;;;;;;;3.20;2.53;;;;;;;21.01;nan;100439.31;4985524;28;20037;-86
2023/05/14 10:33:48;;;;;;;4.00;2.95;;;;;;;21.04;nan;100438.88;4981986;28;20058;-85
2023/05/14 10:36:13;;;;;;;5.03;2.70;;;;;;;21.00;nan;100427.75;4994485;28;20222;-86
2023/05/14 10:38:38;;;;;;;3.67;2.65;;;;;;;20.80;nan;100437.88;5006924;28;20053;-86
2023/05/14 10:41:09;;;;;;;2.80;2.50;;;;;;;21.23;nan;100434.31;4999922;28;20510;-86
2023/05/14 10:43:40;;;;;;;2.90;2.30;;;;;;;21.34;nan;100428.22;5006142;28;20414;-84
2023/05/14 10:46:08;;;;;;;3.20;2.33;;;;;;;21.33;nan;100431.97;4987146;28;20091;-87
2023/05/14 10:48:35;;;;;;;3.42;2.70;;;;;;;21.26;nan;100438.44;5001867;28;20125;-86
2023/05/14 10:51:03;;;;;;;3.47;2.83;;;;;;;20.95;nan;100433.00;4984049;28;20034;-86
2023/05/14 10:53:36;;;;;;;3.35;2.53;;;;;;;20.88;nan;100434.06;4986367;28;20034;-86
2023/05/14 10:56:06;;;;;;;3.50;2.75;;;;;;;20.74;nan;100430.72;4990203;28;20066;-84
2023/05/14 10:58:34;;;;;;;3.90;2.60;;;;;;;20.65;nan;100432.84;5007151;28;20045;-84
2023/05/14 11:01:01;;;;;;;3.00;2.60;;;;;;;20.18;nan;100428.88;5000118;28;20061;-84
2023/05/14 11:03:30;;;;;;;3.53;2.90;;;;;;;20.30;nan;100425.25;4995907;28;20451;-86
2023/05/14 11:05:56;;;;;;;3.03;2.47;;;;;;;20.20;nan;100426.78;5010767;28;20037;-85
2023/05/14 11:08:21;;;;;;;3.20;2.40;;;;;;;20.39;nan;100420.44;5010338;28;20551;-86
2023/05/14 11:10:48;;;;;;;3.05;2.63;;;;;;;20.54;nan;100425.47;4994424;28;20053;-85
2023/05/14 11:13:15;;;;;;;3.83;2.92;;;;;;;20.40;nan;100422.06;5011029;28;20030;-85
2023/05/14 11:15:45;;;;;;;3.17;2.55;;;;;;;20.51;nan;100418.69;5003841;28;20065;-85
2023/05/14 11:18:11;;;;;;;3.50;2.50;;;;;;;20.37;nan;100414.47;5001629;28;20042;-85
2023/05/14 11:20:36;;;;;;;3.10;2.50;;;;;;;20.57;nan;100419.72;5009006;28;20091;-86
2023/05/14 11:23:02;;;;;;;3.10;2.15;;;;;;;20.71;nan;100413.19;4997910;28;20042;-86
2023/05/14 11:25:27;;;;;;;3.08;2.40;;;;;;;21.22;nan;100411.19;5000925;28;20026;-87
2023/05/14 11:27:57;;;;;;;4.18;2.70;;;;;;;21.18;nan;100418.88;5012386;28;20026;-86
2023/05/14 11:30:22;;;;;;;3.03;2.20;;;;;;;21.30;nan;100407.38;5012506;28;20514;-86
2023/05/14 11:32:48;;;;;;;4.47;2.88;;;;;;;21.18;nan;100418.88;4988740;28;20042;-87
2023/05/14 11:35:14;;;;;;;3.10;2.45;;;;;;;21.32;nan;100424.91;4998061;28;20058;-85
2023/05/14 11:37:40;;;;;;;2.90;2.40;;;;;;;21.02;nan;100406.00;4989677;28;20037;-86
2023/05/14 11:40:16;;;;;;;3.20;2.80;;;;;;;20.93;nan;100410.88;4999218;28;20080;-86